Time;durP1;ratioP1;P1;durP2;ratioP2;P2;SDS_P1;SDS_P2;PMS_P1;PMS_P2;Temp;Humidity;BMP_temperature;BMP_pressure;BME280_temperature;BME280_humidity;BME280_pressure;Samples;Min_cycle;Max_cycle;Signal;HPM_P1;HPM_P2
2021/06/22 00:02:15;;;;;;;;;;;;;;;;;;5136843;27;19914;-60
2021/06/22 00:04:41;;;;;;;;;;;;;;;;;;5133871;27;19915;-61
2021/06/22 00:07:07;;;;;;;;;;;;;;;;;;5133670;27;19912;-60
2021/06/22 00:09:33;;;;;;;;;;;;;;;;;;5133944;27;19927;-61
2021/06/22 00:11:59;;;;;;;;;;;;;;;;;;5129700;27;20421;-60
2021/06/22 00:14:25;;;;;;;;;;;;;;;;;;5134474;27;19919;-61
2021/06/22 00:16:51;;;;;;;;;;;;;;;;;;5136485;27;20017;-60
2021/06/22 00:19:17;;;;;;;;;;;;;;;;;;5133858;27;19912;-60
2021/06/22 00:21:43;;;;;;;;;;;;;;;;;;5133782;27;19951;-60
2021/06/22 00:24:08;;;;;;;;;;;;;;;;;;5130624;27;19955;-60
2021/06/22 00:26:34;;;;;;;;;;;;;;;;;;5135952;27;20270;-60
2021/06/22 00:29:00;;;;;;;;;;;;;;;;;;5139616;27;19907;-60
2021/06/22 00:31:26;;;;;;;;;;;;;;;;;;5138071;27;19918;-60
2021/06/22 00:33:52;;;;;;;;;;;;;;;;;;5137669;27;19943;-60
2021/06/22 00:36:18;;;;;;;;;;;;;;;;;;5136934;27;19917;-60
2021/06/22 00:38:44;;;;;;;;;;;;;;;;;;5134231;27;19911;-60
2021/06/22 00:41:10;;;;;;;;;;;;;;;;;;5140614;27;19911;-60
2021/06/22 00:43:35;;;;;;;;;;;;;;;;;;5137672;27;19963;-60
2021/06/22 00:46:01;;;;;;;;;;;;;;;;;;5137717;27;19922;-60
2021/06/22 00:48:27;;;;;;;;;;;;;;;;;;5136966;27;19915;-60
2021/06/22 00:50:53;;;;;;;;;;;;;;;;;;5133587;27;19912;-60
2021/06/22 00:53:19;;;;;;;;;;;;;;;;;;5140052;27;19911;-60
2021/06/22 00:55:45;;;;;;;;;;;;;;;;;;5139436;27;19915;-60
2021/06/22 00:58:11;;;;;;;;;;;;;;;;;;5137408;27;19918;-60
2021/06/22 01:00:37;;;;;;;;;;;;;;;;;;5137041;27;19911;-60
2021/06/22 01:03:03;;;;;;;;;;;;;;;;;;5134360;27;20274;-60
2021/06/22 01:05:29;;;;;;;;;;;;;;;;;;5137820;27;19913;-59
2021/06/22 01:07:55;;;;;;;;;;;;;;;;;;5138275;27;19960;-60
2021/06/22 01:10:21;;;;;;;;;;;;;;;;;;5137021;27;19967;-60
2021/06/22 01:12:47;;;;;;;;;;;;;;;;;;5136910;27;19957;-60
2021/06/22 01:15:13;;;;;;;;;;;;;;;;;;5135819;27;19951;-60
2021/06/22 01:17:38;;;;;;;;;;;;;;;;;;5116802;27;20366;-60
2021/06/22 01:20:04;;;;;;;;;;;;;;;;;;5138590;27;19907;-61
2021/06/22 01:22:30;;;;;;;;;;;;;;;;;;5136939;27;19954;-60
2021/06/22 01:24:56;;;;;;;;;;;;;;;;;;5136740;27;20294;-60
2021/06/22 01:27:22;;;;;;;;;;;;;;;;;;5137023;27;19915;-60
2021/06/22 01:29:48;;;;;;;;;;;;;;;;;;5132765;27;20382;-60
2021/06/22 01:32:14;;;;;;;;;;;;;;;;;;5139137;27;19908;-60
2021/06/22 01:34:40;;;;;;;;;;;;;;;;;;5118148;27;20382;-59
2021/06/22 01:37:06;;;;;;;;;;;;;;;;;;5136388;27;19917;-59
2021/06/22 01:39:31;;;;;;;;;;;;;;;;;;5136756;27;20369;-59
2021/06/22 01:41:57;;;;;;;;;;;;;;;;;;5133053;27;19955;-59
2021/06/22 01:44:23;;;;;;;;;;;;;;;;;;5138227;27;19915;-59
2021/06/22 01:46:49;;;;;;;;;;;;;;;;;;5136517;27;19907;-59
2021/06/22 01:49:15;;;;;;;;;;;;;;;;;;5136580;27;20394;-59
2021/06/22 01:51:41;;;;;;;;;;;;;;;;;;5136472;27;19918;-59
2021/06/22 01:54:07;;;;;;;;;;;;;;;;;;5134197;27;19987;-59
2021/06/22 01:56:34;;;;;;;;;;;;;;;;;;5136036;27;20378;-59
2021/06/22 01:59:00;;;;;;;;;;;;;;;;;;5137319;27;19908;-59
2021/06/22 02:01:25;;;;;;;;;;;;;;;;;;5136172;27;19918;-59
2021/06/22 02:03:51;;;;;;;;;;;;;;;;;;5136231;27;19915;-59
2021/06/22 02:06:17;;;;;;;;;;;;;;;;;;5135365;27;19911;-60
2021/06/22 02:08:43;;;;;;;;;;;;;;;;;;5132688;27;19911;-59
2021/06/22 02:11:09;;;;;;;;;;;;;;;;;;5139090;27;19922;-60
2021/06/22 02:13:35;;;;;;;;;;;;;;;;;;5135661;27;19919;-60
2021/06/22 02:16:01;;;;;;;;;;;;;;;;;;5136041;27;19911;-59
2021/06/22 02:18:27;;;;;;;;;;;;;;;;;;5135655;27;19936;-60
2021/06/22 02:20:53;;;;;;;;;;;;;;;;;;5113341;27;19999;-59
2021/06/22 02:23:19;;;;;;;;;;;;;;;;;;5139112;27;19914;-59
2021/06/22 02:25:44;;;;;;;;;;;;;;;;;;5118928;27;19911;-59
2021/06/22 02:28:10;;;;;;;;;;;;;;;;;;5135100;27;19923;-59
2021/06/22 02:30:36;;;;;;;;;;;;;;;;;;5135758;27;19911;-59
2021/06/22 02:33:02;;;;;;;;;;;;;;;;;;5132864;27;19980;-60
2021/06/22 02:35:28;;;;;;;;;;;;;;;;;;5136236;27;19908;-59
2021/06/22 02:37:54;;;;;;;;;;;;;;;;;;5136819;27;19908;-59
2021/06/22 02:40:20;;;;;;;;;;;;;;;;;;5135490;27;20386;-60
2021/06/22 02:42:46;;;;;;;;;;;;;;;;;;5134953;27;19922;-59
2021/06/22 02:45:12;;;;;;;;;;;;;;;;;;5134280;27;20393;-59
2021/06/22 02:47:37;;;;;;;;;;;;;;;;;;5133573;27;19948;-60
2021/06/22 02:50:03;;;;;;;;;;;;;;;;;;5136496;27;20278;-60
2021/06/22 02:52:29;;;;;;;;;;;;;;;;;;5135340;27;19991;-59
2021/06/22 02:54:55;;;;;;;;;;;;;;;;;;5135204;27;20367;-60
2021/06/22 02:57:21;;;;;;;;;;;;;;;;;;5134670;27;19911;-60
2021/06/22 02:59:47;;;;;;;;;;;;;;;;;;5130777;27;19916;-60
2021/06/22 03:02:13;;;;;;;;;;;;;;;;;;5138589;27;19912;-60
2021/06/22 03:04:39;;;;;;;;;;;;;;;;;;5135082;27;20002;-59
2021/06/22 03:07:04;;;;;;;;;;;;;;;;;;5135008;27;19911;-60
2021/06/22 03:09:30;;;;;;;;;;;;;;;;;;5134000;27;20294;-60
2021/06/22 03:11:56;;;;;;;;;;;;;;;;;;5131203;27;20366;-60
2021/06/22 03:14:22;;;;;;;;;;;;;;;;;;5136931;27;19920;-60
2021/06/22 03:16:48;;;;;;;;;;;;;;;;;;5135541;27;20006;-60
2021/06/22 03:19:14;;;;;;;;;;;;;;;;;;5134118;27;19911;-60
2021/06/22 03:21:42;;;;;;;;;;;;;;;;;;5134434;27;20278;-59
2021/06/22 03:24:08;;;;;;;;;;;;;;;;;;5132902;27;19911;-59
2021/06/22 03:26:34;;;;;;;;;;;;;;;;;;5134073;27;19911;-59
2021/06/22 03:29:00;;;;;;;;;;;;;;;;;;5136158;27;20022;-60
2021/06/22 03:31:26;;;;;;;;;;;;;;;;;;5134262;27;19908;-59
2021/06/22 03:33:52;;;;;;;;;;;;;;;;;;5116006;27;19958;-60
2021/06/22 03:36:18;;;;;;;;;;;;;;;;;;5134101;27;19914;-60
2021/06/22 03:38:44;;;;;;;;;;;;;;;;;;5130957;27;19915;-61
2021/06/22 03:41:09;;;;;;;;;;;;;;;;;;5137082;27;19950;-60
2021/06/22 03:43:35;;;;;;;;;;;;;;;;;;5134159;27;19914;-60
2021/06/22 03:46:01;;;;;;;;;;;;;;;;;;5134284;27;19980;-60
2021/06/22 03:48:27;;;;;;;;;;;;;;;;;;5133855;27;19929;-64
2021/06/22 03:50:53;;;;;;;;;;;;;;;;;;5130148;27;19990;-60
2021/06/22 03:53:19;;;;;;;;;;;;;;;;;;5137319;27;19915;-65
2021/06/22 03:55:45;;;;;;;;;;;;;;;;;;5134017;27;19911;-65
2021/06/22 03:58:11;;;;;;;;;;;;;;;;;;5116925;27;20361;-65
2021/06/22 04:00:37;;;;;;;;;;;;;;;;;;5134242;27;19955;-65
2021/06/22 04:03:02;;;;;;;;;;;;;;;;;;5137210;27;19911;-65
2021/06/22 04:05:28;;;;;;;;;;;;;;;;;;5142907;27;19907;-65
2021/06/22 04:07:54;;;;;;;;;;;;;;;;;;5143155;27;19907;-66
2021/06/22 04:10:20;;;;;;;;;;;;;;;;;;5123360;27;20503;-65
2021/06/22 04:12:46;;;;;;;;;;;;;;;;;;5142952;27;20378;-65
2021/06/22 04:15:12;;;;;;;;;;;;;;;;;;5143000;27;19927;-64
2021/06/22 04:17:38;;;;;;;;;;;;;;;;;;5139974;27;19907;-65
2021/06/22 04:20:04;;;;;;;;;;;;;;;;;;5147197;27;19915;-65
2021/06/22 04:22:30;;;;;;;;;;;;;;;;;;5134365;27;19964;-65
2021/06/22 04:24:56;;;;;;;;;;;;;;;;;;5133379;27;19998;-64
2021/06/22 04:27:22;;;;;;;;;;;;;;;;;;5133518;27;20278;-64
2021/06/22 04:29:48;;;;;;;;;;;;;;;;;;5094758;28;19954;-64
2021/06/22 04:32:14;;;;;;;;;;;;;;;;;;5136970;27;20386;-64
2021/06/22 04:34:40;;;;;;;;;;;;;;;;;;5133383;27;19926;-64
2021/06/22 04:37:06;;;;;;;;;;;;;;;;;;5133662;27;19912;-65
2021/06/22 04:39:32;;;;;;;;;;;;;;;;;;5133503;27;19911;-65
2021/06/22 04:41:57;;;;;;;;;;;;;;;;;;5130450;27;19912;-65
2021/06/22 04:44:23;;;;;;;;;;;;;;;;;;5135058;27;20394;-65
2021/06/22 04:46:49;;;;;;;;;;;;;;;;;;5134753;27;19908;-64
2021/06/22 04:49:15;;;;;;;;;;;;;;;;;;5133877;27;19912;-65
2021/06/22 04:51:41;;;;;;;;;;;;;;;;;;5132839;27;20062;-64
2021/06/22 04:54:09;;;;;;;;;;;;;;;;;;5131188;27;20453;-65
2021/06/22 04:56:35;;;;;;;;;;;;;;;;;;5132604;27;20370;-65
2021/06/22 04:59:01;;;;;;;;;;;;;;;;;;5135277;27;19914;-65
2021/06/22 05:01:27;;;;;;;;;;;;;;;;;;5133107;27;19911;-64
2021/06/22 05:03:53;;;;;;;;;;;;;;;;;;5133469;27;19915;-65
2021/06/22 05:06:19;;;;;;;;;;;;;;;;;;5132792;27;20075;-65
2021/06/22 05:08:45;;;;;;;;;;;;;;;;;;5129765;27;19995;-64
2021/06/22 05:11:11;;;;;;;;;;;;;;;;;;5136978;27;19908;-64
2021/06/22 05:13:37;;;;;;;;;;;;;;;;;;5136902;27;19926;-64
2021/06/22 05:16:03;;;;;;;;;;;;;;;;;;5137097;27;19911;-64
2021/06/22 05:18:28;;;;;;;;;;;;;;;;;;5136864;27;19915;-64
2021/06/22 05:20:54;;;;;;;;;;;;;;;;;;5133064;27;19920;-64
2021/06/22 05:23:20;;;;;;;;;;;;;;;;;;5139532;27;19908;-64
2021/06/22 05:25:46;;;;;;;;;;;;;;;;;;5138895;27;19930;-64
2021/06/22 05:28:12;;;;;;;;;;;;;;;;;;5136275;27;20512;-64
2021/06/22 05:30:38;;;;;;;;;;;;;;;;;;5137049;27;19911;-64
2021/06/22 05:33:04;;;;;;;;;;;;;;;;;;5134094;27;20282;-65
2021/06/22 05:35:30;;;;;;;;;;;;;;;;;;5137094;27;19954;-64
2021/06/22 05:37:55;;;;;;;;;;;;;;;;;;5119300;27;19907;-65
2021/06/22 05:40:21;;;;;;;;;;;;;;;;;;5136377;27;19912;-65
2021/06/22 05:42:47;;;;;;;;;;;;;;;;;;5136436;27;19947;-65
2021/06/22 05:45:13;;;;;;;;;;;;;;;;;;5135252;27;20369;-65
2021/06/22 05:47:39;;;;;;;;;;;;;;;;;;5134887;27;19914;-65
2021/06/22 05:50:05;;;;;;;;;;;;;;;;;;5138728;27;19914;-64
2021/06/22 05:52:31;;;;;;;;;;;;;;;;;;5135491;27;19915;-64
2021/06/22 05:54:57;;;;;;;;;;;;;;;;;;5135504;27;20290;-64
2021/06/22 05:57:23;;;;;;;;;;;;;;;;;;5136392;27;20361;-63
2021/06/22 05:59:49;;;;;;;;;;;;;;;;;;5132321;27;19911;-65
2021/06/22 06:02:14;;;;;;;;;;;;;;;;;;5139330;27;19907;-64
2021/06/22 06:04:41;;;;;;;;;;;;;;;;;;5135828;27;19915;-63
2021/06/22 06:07:07;;;;;;;;;;;;;;;;;;5133526;27;19954;-64
2021/06/22 06:09:33;;;;;;;;;;;;;;;;;;5132890;27;19973;-64
2021/06/22 06:11:59;;;;;;;;;;;;;;;;;;5144374;27;19984;-64
2021/06/22 06:14:25;;;;;;;;;;;;;;;;;;5135993;27;19916;-63
2021/06/22 06:16:51;;;;;;;;;;;;;;;;;;5136342;27;19950;-63
2021/06/22 06:19:17;;;;;;;;;;;;;;;;;;5135630;27;20338;-63
2021/06/22 06:21:43;;;;;;;;;;;;;;;;;;5135450;27;19920;-63
2021/06/22 06:24:09;;;;;;;;;;;;;;;;;;5129985;27;19911;-63
2021/06/22 06:26:52;;;;;;;;;;;;;;;;;;5133600;27;20380;-63
2021/06/22 06:29:39;;;;;;;;;;;;;;;;;;5133979;27;19942;-63
2021/06/22 06:32:05;;;;;;;;;;;;;;;;;;5136349;27;19912;-63
2021/06/22 06:34:31;;;;;;;;;;;;;;;;;;5132003;27;19929;-63
2021/06/22 06:36:57;;;;;;;;;;;;;;;;;;5121533;27;20026;-63
2021/06/22 06:39:23;;;;;;;;;;;;;;;;;;5129751;27;20276;-63
2021/06/22 06:41:49;;;;;;;;;;;;;;;;;;5136604;27;20420;-63
2021/06/22 06:44:15;;;;;;;;;;;;;;;;;;5137048;27;19921;-63
2021/06/22 06:46:41;;;;;;;;;;;;;;;;;;5130956;27;19992;-63
2021/06/22 06:49:07;;;;;;;;;;;;;;;;;;5130771;27;19912;-63
2021/06/22 06:51:32;;;;;;;;;;;;;;;;;;5133374;27;19915;-64
2021/06/22 06:53:58;;;;;;;;;;;;;;;;;;5129709;27;20371;-63
2021/06/22 06:56:24;;;;;;;;;;;;;;;;;;5135472;27;19907;-63
2021/06/22 06:58:50;;;;;;;;;;;;;;;;;;5141714;27;19915;-64
2021/06/22 07:01:16;;;;;;;;;;;;;;;;;;5138334;27;19923;-63
2021/06/22 07:03:45;;;;;;;;;;;;;;;;;;5134307;27;19915;-64
2021/06/22 07:06:11;;;;;;;;;;;;;;;;;;5114071;27;19919;-64
2021/06/22 07:08:37;;;;;;;;;;;;;;;;;;5120856;27;20393;-64
2021/06/22 07:11:02;;;;;;;;;;;;;;;;;;5136072;27;20003;-64
2021/06/22 07:13:28;;;;;;;;;;;;;;;;;;5135778;27;19926;-64
2021/06/22 07:15:54;;;;;;;;;;;;;;;;;;5134661;27;19919;-64
2021/06/22 07:18:20;;;;;;;;;;;;;;;;;;5131320;27;20369;-64
2021/06/22 07:20:47;;;;;;;;;;;;;;;;;;5129590;27;19965;-63
2021/06/22 07:23:13;;;;;;;;;;;;;;;;;;5137426;27;20270;-64
2021/06/22 07:25:39;;;;;;;;;;;;;;;;;;5134304;27;19918;-63
2021/06/22 07:28:05;;;;;;;;;;;;;;;;;;5132329;27;19911;-63
2021/06/22 07:30:31;;;;;;;;;;;;;;;;;;5132817;27;19919;-64
2021/06/22 07:32:57;;;;;;;;;;;;;;;;;;5129629;27;19964;-64
2021/06/22 07:35:23;;;;;;;;;;;;;;;;;;5135965;27;20389;-64
2021/06/22 07:37:49;;;;;;;;;;;;;;;;;;5128201;27;20316;-64
2021/06/22 07:40:15;;;;;;;;;;;;;;;;;;5128507;27;20020;-64
2021/06/22 07:42:41;;;;;;;;;;;;;;;;;;5133225;27;19911;-63
2021/06/22 07:45:07;;;;;;;;;;;;;;;;;;5131833;27;19912;-63
2021/06/22 07:47:33;;;;;;;;;;;;;;;;;;5131506;27;20060;-63
2021/06/22 07:49:59;;;;;;;;;;;;;;;;;;5135265;27;19915;-63
2021/06/22 07:52:24;;;;;;;;;;;;;;;;;;5132450;27;19911;-63
2021/06/22 07:54:50;;;;;;;;;;;;;;;;;;5133141;27;19969;-63
2021/06/22 07:57:16;;;;;;;;;;;;;;;;;;5129672;27;19915;-63
2021/06/22 07:59:42;;;;;;;;;;;;;;;;;;5143589;27;19915;-63
2021/06/22 08:02:08;;;;;;;;;;;;;;;;;;5134735;27;19914;-63
2021/06/22 08:04:34;;;;;;;;;;;;;;;;;;5133491;27;19912;-62
2021/06/22 08:07:00;;;;;;;;;;;;;;;;;;5133256;27;20353;-63
2021/06/22 08:09:26;;;;;;;;;;;;;;;;;;5122375;27;19926;-63
2021/06/22 08:11:52;;;;;;;;;;;;;;;;;;5128621;27;20429;-61
2021/06/22 08:14:17;;;;;;;;;;;;;;;;;;5137005;27;20014;-61
2021/06/22 08:16:43;;;;;;;;;;;;;;;;;;5133171;27;20362;-61
2021/06/22 08:19:09;;;;;;;;;;;;;;;;;;5131040;27;19912;-61
2021/06/22 08:21:35;;;;;;;;;;;;;;;;;;5130968;27;19911;-61
2021/06/22 08:24:01;;;;;;;;;;;;;;;;;;5129588;27;19912;-61
2021/06/22 08:26:27;;;;;;;;;;;;;;;;;;5134286;27;20010;-61
2021/06/22 08:28:53;;;;;;;;;;;;;;;;;;5142610;27;19960;-61
2021/06/22 08:31:19;;;;;;;;;;;;;;;;;;5136277;27;19934;-61
2021/06/22 08:33:45;;;;;;;;;;;;;;;;;;5133074;27;20363;-61
2021/06/22 08:36:11;;;;;;;;;;;;;;;;;;5131535;27;19919;-61
2021/06/22 08:38:37;;;;;;;;;;;;;;;;;;5121402;27;20319;-61
2021/06/22 08:41:03;;;;;;;;;;;;;;;;;;5134629;27;20293;-61
2021/06/22 08:43:29;;;;;;;;;;;;;;;;;;5132756;27;20102;-61
2021/06/22 08:45:55;;;;;;;;;;;;;;;;;;5132987;27;20350;-61
2021/06/22 08:48:21;;;;;;;;;;;;;;;;;;5116551;27;19911;-60
2021/06/22 08:50:47;;;;;;;;;;;;;;;;;;5131850;27;20346;-61
2021/06/22 08:53:14;;;;;;;;;;;;;;;;;;5150744;27;19960;-61
2021/06/22 08:55:40;;;;;;;;;;;;;;;;;;5135909;27;19965;-61
2021/06/22 08:58:06;;;;;;;;;;;;;;;;;;5135706;27;19911;-61
2021/06/22 09:00:34;;;;;;;;;;;;;;;;;;5127817;27;19979;-62
2021/06/22 09:03:00;;;;;;;;;;;;;;;;;;5109819;27;20316;-63
2021/06/22 09:05:26;;;;;;;;;;;;;;;;;;5137823;27;19956;-63
2021/06/22 09:07:53;;;;;;;;;;;;;;;;;;5130230;27;19952;-62
2021/06/22 09:10:20;;;;;;;;;;;;;;;;;;5133668;27;20279;-62
2021/06/22 09:12:45;;;;;;;;;;;;;;;;;;5131790;27;19960;-62
2021/06/22 09:15:11;;;;;;;;;;;;;;;;;;5124680;27;19927;-70
2021/06/22 09:17:38;;;;;;;;;;;;;;;;;;5134432;27;20263;-80
2021/06/22 09:20:04;;;;;;;;;;;;;;;;;;5136401;27;19911;-79
2021/06/22 09:22:30;;;;;;;;;;;;;;;;;;5129182;27;19911;-79
2021/06/22 09:24:56;;;;;;;;;;;;;;;;;;5120199;27;20001;-77
2021/06/22 09:27:22;;;;;;;;;;;;;;;;;;5144800;27;20350;-77
2021/06/22 09:29:47;;;;;;;;;;;;;;;;;;5122874;27;19919;-77
2021/06/22 09:32:13;;;;;;;;;;;;;;;;;;5128741;27;19911;-78
2021/06/22 09:34:39;;;;;;;;;;;;;;;;;;5127163;27;19920;-77
2021/06/22 09:37:07;;;;;;;;;;;;;;;;;;5135399;27;20281;-77
2021/06/22 09:39:33;;;;;;;;;;;;;;;;;;5126760;27;19915;-78
2021/06/22 09:41:59;;;;;;;;;;;;;;;;;;5133188;27;20002;-77
2021/06/22 09:44:25;;;;;;;;;;;;;;;;;;5130838;27;19922;-77
2021/06/22 09:46:52;;;;;;;;;;;;;;;;;;5133958;27;19911;-77
2021/06/22 09:49:19;;;;;;;;;;;;;;;;;;5136646;27;19943;-77
2021/06/22 09:52:08;;;;;;;;;;;;;;;;;;5131239;27;19942;-77
2021/06/22 09:54:31;;;;;;;;;;;;;;;;;;5128449;27;20027;-77
2021/06/22 09:56:57;;;;;;;;;;;;;;;;;;5126907;27;19965;-77
2021/06/22 09:59:23;;;;;;;;;;;;;;;;;;5120471;27;19951;-77
2021/06/22 10:01:49;;;;;;;;;;;;;;;;;;5130337;27;20506;-75
2021/06/22 10:04:15;;;;;;;;;;;;;;;;;;5127020;27;19920;-77
2021/06/22 10:06:41;;;;;;;;;;;;;;;;;;5144919;27;19918;-75
2021/06/22 10:09:07;;;;;;;;;;;;;;;;;;5133071;27;19919;-75
2021/06/22 10:11:33;;;;;;;;;;;;;;;;;;5125419;27;19994;-76
2021/06/22 10:13:59;;;;;;;;;;;;;;;;;;5129445;27;19916;-74
2021/06/22 10:16:24;;;;;;;;;;;;;;;;;;5131919;27;19959;-76
2021/06/22 10:18:50;;;;;;;;;;;;;;;;;;5136965;27;19950;-75
2021/06/22 10:21:16;;;;;;;;;;;;;;;;;;5109418;27;20044;-75
2021/06/22 10:23:42;;;;;;;;;;;;;;;;;;5122783;27;19911;-77
2021/06/22 10:26:08;;;;;;;;;;;;;;;;;;5136629;27;19952;-75
2021/06/22 10:28:34;;;;;;;;;;;;;;;;;;5134144;27;20014;-76
2021/06/22 10:31:00;;;;;;;;;;;;;;;;;;5133944;27;19933;-75
2021/06/22 10:33:26;;;;;;;;;;;;;;;;;;5145810;27;19923;-76
2021/06/22 10:35:52;;;;;;;;;;;;;;;;;;5128969;27;20442;-74
2021/06/22 10:38:19;;;;;;;;;;;;;;;;;;5137702;27;19930;-74
2021/06/22 10:40:46;;;;;;;;;;;;;;;;;;5128372;27;19922;-77
2021/06/22 10:43:12;;;;;;;;;;;;;;;;;;5121826;27;20370;-78
2021/06/22 10:45:38;;;;;;;;;;;;;;;;;;5125155;27;19922;-77
2021/06/22 10:48:04;;;;;;;;;;;;;;;;;;5137197;27;20004;-76
2021/06/22 10:50:30;;;;;;;;;;;;;;;;;;5132140;27;19912;-77
2021/06/22 10:52:56;;;;;;;;;;;;;;;;;;5141676;27;20315;-77
2021/06/22 10:55:22;;;;;;;;;;;;;;;;;;5133434;27;19964;-78
2021/06/22 10:57:47;;;;;;;;;;;;;;;;;;5134089;27;20006;-75
2021/06/22 11:00:14;;;;;;;;;;;;;;;;;;5129858;27;20366;-77
2021/06/22 11:02:39;;;;;;;;;;;;;;;;;;5127259;27;20543;-77
2021/06/22 11:05:05;;;;;;;;;;;;;;;;;;5135164;27;19907;-77
2021/06/22 11:07:31;;;;;;;;;;;;;;;;;;5134093;27;19951;-76
2021/06/22 11:09:57;;;;;;;;;;;;;;;;;;5133041;27;19920;-75
2021/06/22 11:12:23;;;;;;;;;;;;;;;;;;5134633;27;19930;-75
2021/06/22 11:14:49;;;;;;;;;;;;;;;;;;5113862;27;20302;-75
2021/06/22 11:17:15;;;;;;;;;;;;;;;;;;5137872;27;19964;-75
2021/06/22 11:19:41;;;;;;;;;;;;;;;;;;5134666;27;19912;-75
2021/06/22 11:22:07;;;;;;;;;;;;;;;;;;5134639;27;19915;-75
2021/06/22 11:24:33;;;;;;;;;;;;;;;;;;5134054;27;19997;-78
2021/06/22 11:27:00;;;;;;;;;;;;;;;;;;5131954;27;19957;-77
2021/06/22 11:29:26;;;;;;;;;;;;;;;;;;5139643;27;19907;-77
2021/06/22 11:31:52;;;;;;;;;;;;;;;;;;5135681;27;19911;-77
2021/06/22 11:34:18;;;;;;;;;;;;;;;;;;5134021;27;19927;-77
2021/06/22 11:36:44;;;;;;;;;;;;;;;;;;5134080;27;19924;-75
2021/06/22 11:39:10;;;;;;;;;;;;;;;;;;5124182;27;19966;-76
2021/06/22 11:41:36;;;;;;;;;;;;;;;;;;5136671;27;19908;-76
2021/06/22 11:44:02;;;;;;;;;;;;;;;;;;5135567;27;19912;-76
2021/06/22 11:46:31;;;;;;;;;;;;;;;;;;5133670;27;19911;-76
2021/06/22 11:48:57;;;;;;;;;;;;;;;;;;5127813;27;19915;-76
2021/06/22 11:51:23;;;;;;;;;;;;;;;;;;5134036;27;19915;-75
2021/06/22 11:53:49;;;;;;;;;;;;;;;;;;5115418;27;19919;-75
2021/06/22 11:56:15;;;;;;;;;;;;;;;;;;5135974;27;19907;-76
2021/06/22 11:58:40;;;;;;;;;;;;;;;;;;5125005;27;19994;-76
2021/06/22 12:01:06;;;;;;;;;;;;;;;;;;5130480;27;19919;-75
2021/06/22 12:03:32;;;;;;;;;;;;;;;;;;5133650;27;20405;-76
2021/06/22 12:05:58;;;;;;;;;;;;;;;;;;5131062;27;19912;-77
2021/06/22 12:08:24;;;;;;;;;;;;;;;;;;5134754;27;19911;-75
2021/06/22 12:10:50;;;;;;;;;;;;;;;;;;5137255;27;20011;-78
2021/06/22 12:13:16;;;;;;;;;;;;;;;;;;5143197;27;19911;-78
2021/06/22 12:15:42;;;;;;;;;;;;;;;;;;5141453;27;19923;-80
2021/06/22 12:18:08;;;;;;;;;;;;;;;;;;5136979;27;19965;-76
2021/06/22 12:20:34;;;;;;;;;;;;;;;;;;5140357;27;19911;-76
2021/06/22 12:23:00;;;;;;;;;;;;;;;;;;5144702;27;19907;-76
2021/06/22 12:25:26;;;;;;;;;;;;;;;;;;5138080;27;20001;-75
2021/06/22 12:27:52;;;;;;;;;;;;;;;;;;5133289;27;20031;-77
2021/06/22 12:30:18;;;;;;;;;;;;;;;;;;5149753;27;19911;-76
2021/06/22 12:32:44;;;;;;;;;;;;;;;;;;5115481;27;20293;-78
2021/06/22 12:35:10;;;;;;;;;;;;;;;;;;5134093;27;19922;-75
2021/06/22 12:37:36;;;;;;;;;;;;;;;;;;5139280;27;20293;-75
2021/06/22 12:40:02;;;;;;;;;;;;;;;;;;5138819;27;19911;-76
2021/06/22 12:42:31;;;;;;;;;;;;;;;;;;5132744;27;20378;-76
2021/06/22 12:44:57;;;;;;;;;;;;;;;;;;5135224;27;20365;-75
2021/06/22 12:47:22;;;;;;;;;;;;;;;;;;5124266;27;19949;-75
2021/06/22 12:49:48;;;;;;;;;;;;;;;;;;5119117;27;19966;-75
2021/06/22 12:52:16;;;;;;;;;;;;;;;;;;5139563;27;20285;-75
2021/06/22 12:54:43;;;;;;;;;;;;;;;;;;5127828;27;20267;-75
2021/06/22 12:57:09;;;;;;;;;;;;;;;;;;5130266;27;19986;-76
2021/06/22 12:59:35;;;;;;;;;;;;;;;;;;5137360;27;20447;-75
2021/06/22 13:02:01;;;;;;;;;;;;;;;;;;5138575;27;19918;-76
2021/06/22 13:04:26;;;;;;;;;;;;;;;;;;5137749;27;20287;-75
2021/06/22 13:06:53;;;;;;;;;;;;;;;;;;5137073;27;19923;-76
2021/06/22 13:09:19;;;;;;;;;;;;;;;;;;5136434;27;20018;-75
2021/06/22 13:11:45;;;;;;;;;;;;;;;;;;5133905;27;19991;-76
2021/06/22 13:14:11;;;;;;;;;;;;;;;;;;5134737;27;20275;-75
2021/06/22 13:16:37;;;;;;;;;;;;;;;;;;5106075;27;19912;-75
2021/06/22 13:19:03;;;;;;;;;;;;;;;;;;5134107;27;19919;-75
2021/06/22 13:21:29;;;;;;;;;;;;;;;;;;5133759;27;19975;-75
2021/06/22 13:23:55;;;;;;;;;;;;;;;;;;5131697;27;19946;-75
2021/06/22 13:26:21;;;;;;;;;;;;;;;;;;5134347;27;20367;-75
2021/06/22 13:28:46;;;;;;;;;;;;;;;;;;5146210;27;19923;-75
2021/06/22 13:31:12;;;;;;;;;;;;;;;;;;5140566;27;20390;-75
2021/06/22 13:33:38;;;;;;;;;;;;;;;;;;5134967;27;20014;-75
2021/06/22 13:36:04;;;;;;;;;;;;;;;;;;5133424;27;19951;-75
2021/06/22 13:38:34;;;;;;;;;;;;;;;;;;5137560;27;19911;-75
2021/06/22 13:41:00;;;;;;;;;;;;;;;;;;5136970;27;20355;-75
2021/06/22 13:43:26;;;;;;;;;;;;;;;;;;5145504;27;19922;-75
2021/06/22 13:45:52;;;;;;;;;;;;;;;;;;5142819;27;19923;-75
2021/06/22 13:48:18;;;;;;;;;;;;;;;;;;5122933;27;19919;-74
2021/06/22 13:50:45;;;;;;;;;;;;;;;;;;5148737;27;19927;-74
2021/06/22 13:53:11;;;;;;;;;;;;;;;;;;5130717;27;19915;-74
2021/06/22 13:55:37;;;;;;;;;;;;;;;;;;5135524;27;19920;-74
2021/06/22 13:58:03;;;;;;;;;;;;;;;;;;5143332;27;19999;-74
2021/06/22 14:00:29;;;;;;;;;;;;;;;;;;5142344;27;20051;-74
2021/06/22 14:02:55;;;;;;;;;;;;;;;;;;5142781;27;19990;-69
2021/06/22 14:05:20;;;;;;;;;;;;;;;;;;5139092;27;20023;-71
2021/06/22 14:07:46;;;;;;;;;;;;;;;;;;5136639;27;19911;-66
2021/06/22 14:10:12;;;;;;;;;;;;;;;;;;5141134;27;19926;-68
2021/06/22 14:12:38;;;;;;;;;;;;;;;;;;5146373;27;19911;-68
2021/06/22 14:15:04;;;;;;;;;;;;;;;;;;5144885;27;19964;-67
2021/06/22 14:17:30;;;;;;;;;;;;;;;;;;5141309;27;19907;-68
2021/06/22 14:19:56;;;;;;;;;;;;;;;;;;5143943;27;19961;-68
2021/06/22 14:22:22;;;;;;;;;;;;;;;;;;5142376;27;19991;-69
2021/06/22 14:24:47;;;;;;;;;;;;;;;;;;5136033;27;19911;-65
2021/06/22 14:27:13;;;;;;;;;;;;;;;;;;5138584;27;19911;-66
2021/06/22 14:29:39;;;;;;;;;;;;;;;;;;5140692;27;20006;-65
2021/06/22 14:32:05;;;;;;;;;;;;;;;;;;5132508;27;20339;-65
2021/06/22 14:34:31;;;;;;;;;;;;;;;;;;5132985;27;19927;-64
2021/06/22 14:36:57;;;;;;;;;;;;;;;;;;5130846;27;19916;-65
2021/06/22 14:39:23;;;;;;;;;;;;;;;;;;5133378;27;19911;-64
2021/06/22 14:41:49;;;;;;;;;;;;;;;;;;5128319;27;19918;-65
2021/06/22 14:44:14;;;;;;;;;;;;;;;;;;5151530;27;19926;-65
2021/06/22 14:46:40;;;;;;;;;;;;;;;;;;5135949;27;19915;-63
2021/06/22 14:49:06;;;;;;;;;;;;;;;;;;5144526;27;20274;-65
2021/06/22 14:51:33;;;;;;;;;;;;;;;;;;5146466;27;19922;-64
2021/06/22 14:53:59;;;;;;;;;;;;;;;;;;5139757;27;19922;-65
2021/06/22 14:56:26;;;;;;;;;;;;;;;;;;5141548;27;19908;-66
2021/06/22 14:58:53;;;;;;;;;;;;;;;;;;5148292;27;20539;-66
2021/06/22 15:01:19;;;;;;;;;;;;;;;;;;5142065;27;20402;-64
2021/06/22 15:03:46;;;;;;;;;;;;;;;;;;5134277;27;19919;-65
2021/06/22 15:06:12;;;;;;;;;;;;;;;;;;5133071;27;19916;-65
2021/06/22 15:08:39;;;;;;;;;;;;;;;;;;5132547;27;19908;-65
2021/06/22 15:11:05;;;;;;;;;;;;;;;;;;5139579;27;20378;-64
2021/06/22 15:13:31;;;;;;;;;;;;;;;;;;5143189;27;19915;-64
2021/06/22 15:15:56;;;;;;;;;;;;;;;;;;5125196;27;19998;-64
2021/06/22 15:18:22;;;;;;;;;;;;;;;;;;5141722;27;19915;-64
2021/06/22 15:20:48;;;;;;;;;;;;;;;;;;5141898;27;19926;-65
2021/06/22 15:23:14;;;;;;;;;;;;;;;;;;5143339;27;19942;-64
2021/06/22 15:25:40;;;;;;;;;;;;;;;;;;5143798;27;19934;-64
2021/06/22 15:28:06;;;;;;;;;;;;;;;;;;5135338;27;19911;-64
2021/06/22 15:30:32;;;;;;;;;;;;;;;;;;5144201;27;19911;-65
2021/06/22 15:32:58;;;;;;;;;;;;;;;;;;5129590;27;19912;-65
2021/06/22 15:35:24;;;;;;;;;;;;;;;;;;5135409;27;19916;-65
2021/06/22 15:37:50;;;;;;;;;;;;;;;;;;5135236;27;19907;-64
2021/06/22 15:40:16;;;;;;;;;;;;;;;;;;5134464;27;20274;-65
2021/06/22 15:42:41;;;;;;;;;;;;;;;;;;5129305;27;19922;-66
2021/06/22 15:45:07;;;;;;;;;;;;;;;;;;5127906;27;19923;-65
2021/06/22 15:47:33;;;;;;;;;;;;;;;;;;5132157;27;19952;-65
2021/06/22 15:49:59;;;;;;;;;;;;;;;;;;5132439;27;19933;-65
2021/06/22 15:52:25;;;;;;;;;;;;;;;;;;5131651;27;20271;-65
2021/06/22 15:54:51;;;;;;;;;;;;;;;;;;5125150;27;19919;-66
2021/06/22 15:57:17;;;;;;;;;;;;;;;;;;5126528;27;19911;-65
2021/06/22 15:59:43;;;;;;;;;;;;;;;;;;5130300;27;19916;-66
2021/06/22 16:02:09;;;;;;;;;;;;;;;;;;5135878;27;19908;-66
2021/06/22 16:04:35;;;;;;;;;;;;;;;;;;5128413;27;19919;-66
2021/06/22 16:07:01;;;;;;;;;;;;;;;;;;5133581;27;20420;-65
2021/06/22 16:09:26;;;;;;;;;;;;;;;;;;5143955;27;19919;-67
2021/06/22 16:11:52;;;;;;;;;;;;;;;;;;5129254;27;19911;-68
2021/06/22 16:14:18;;;;;;;;;;;;;;;;;;5151070;27;19919;-68
2021/06/22 16:16:44;;;;;;;;;;;;;;;;;;5133078;27;19911;-68
2021/06/22 16:19:10;;;;;;;;;;;;;;;;;;5132579;27;19912;-68
2021/06/22 16:21:36;;;;;;;;;;;;;;;;;;5133621;27;20432;-68
2021/06/22 16:24:02;;;;;;;;;;;;;;;;;;5120012;27;19998;-67
2021/06/22 16:26:28;;;;;;;;;;;;;;;;;;5133277;27;19914;-68
2021/06/22 16:28:54;;;;;;;;;;;;;;;;;;5142195;27;20348;-68
2021/06/22 16:31:20;;;;;;;;;;;;;;;;;;5117953;28;19961;-67
2021/06/22 16:33:46;;;;;;;;;;;;;;;;;;5132787;27;19915;-67
2021/06/22 16:36:12;;;;;;;;;;;;;;;;;;5131484;27;19923;-67
2021/06/22 16:38:38;;;;;;;;;;;;;;;;;;5131982;27;20374;-65